Grass Creek, Wyoming
Current Conditions -  °F | °C
As of 1:55 PM on Sunday 21 Dec 2014 (Local Time) from KTBX Reporting Station
Overcast Overcast  
Wind Chill: 28°   Ceiling: 7000
Heat Index: 36°   Visibility: NA
Dew Point: 28°   Wind: 12mph
Humidity: 75%   Direction: 240°WSW
Pressure: 29.58"   Gusts: NA
Location:  43.7189°N, 108.442°W
Report Text: KTBX 212055Z AUTO 24010KT SCT048 BKN070 OVC110 02/M02 A2958 RMK AO2 PWINO
Loading
Personal Weather Stations






























Interactive Weather Map New forecast layout! Learn more

10-Day Weather Forecast

Advertisements
Track Severe Weather on mobile